sensor_id;sensor_type;location;lat;lon;timestamp;P1;durP1;ratioP1;P2;durP2;ratioP2
8102;SDS011;4094;49.948;11.574;2023-08-01T00:01:05;5.30;;;4.70;;
8102;SDS011;4094;49.948;11.574;2023-08-01T00:03:34;5.00;;;4.60;;
8102;SDS011;4094;49.948;11.574;2023-08-01T00:06:03;4.80;;;4.40;;
8102;SDS011;4094;49.948;11.574;2023-08-01T00:08:33;4.73;;;4.33;;
8102;SDS011;4094;49.948;11.574;2023-08-01T00:11:02;5.27;;;4.77;;
8102;SDS011;4094;49.948;11.574;2023-08-01T00:13:32;4.80;;;4.40;;
8102;SDS011;4094;49.948;11.574;2023-08-01T00:16:01;5.20;;;4.70;;
8102;SDS011;4094;49.948;11.574;2023-08-01T00:18:36;5.00;;;4.60;;
8102;SDS011;4094;49.948;11.574;2023-08-01T00:21:05;4.77;;;4.37;;
8102;SDS011;4094;49.948;11.574;2023-08-01T00:23:37;4.77;;;4.30;;
8102;SDS011;4094;49.948;11.574;2023-08-01T00:26:06;5.17;;;4.77;;
8102;SDS011;4094;49.948;11.574;2023-08-01T00:28:35;5.30;;;4.80;;
8102;SDS011;4094;49.948;11.574;2023-08-01T00:31:05;5.10;;;4.47;;
8102;SDS011;4094;49.948;11.574;2023-08-01T00:33:37;5.00;;;4.60;;
8102;SDS011;4094;49.948;11.574;2023-08-01T00:36:06;5.00;;;4.60;;
8102;SDS011;4094;49.948;11.574;2023-08-01T00:38:38;4.87;;;4.37;;
8102;SDS011;4094;49.948;11.574;2023-08-01T00:41:10;4.80;;;4.40;;
8102;SDS011;4094;49.948;11.574;2023-08-01T00:43:40;4.80;;;4.40;;
8102;SDS011;4094;49.948;11.574;2023-08-01T00:46:09;5.20;;;4.70;;
8102;SDS011;4094;49.948;11.574;2023-08-01T00:48:40;4.97;;;4.63;;
8102;SDS011;4094;49.948;11.574;2023-08-01T00:51:10;5.47;;;4.90;;
8102;SDS011;4094;49.948;11.574;2023-08-01T00:53:40;5.70;;;4.83;;
8102;SDS011;4094;49.948;11.574;2023-08-01T00:56:09;4.87;;;4.37;;
8102;SDS011;4094;49.948;11.574;2023-08-01T00:58:39;5.23;;;4.73;;
8102;SDS011;4094;49.948;11.574;2023-08-01T01:01:08;5.43;;;4.70;;
8102;SDS011;4094;49.948;11.574;2023-08-01T01:03:38;5.00;;;4.60;;
8102;SDS011;4094;49.948;11.574;2023-08-01T01:06:09;5.67;;;5.10;;
8102;SDS011;4094;49.948;11.574;2023-08-01T01:08:44;5.77;;;5.20;;
8102;SDS011;4094;49.948;11.574;2023-08-01T01:11:14;6.13;;;4.70;;
8102;SDS011;4094;49.948;11.574;2023-08-01T01:13:43;5.33;;;4.80;;
8102;SDS011;4094;49.948;11.574;2023-08-01T01:16:12;5.50;;;5.00;;
8102;SDS011;4094;49.948;11.574;2023-08-01T01:18:43;7.70;;;5.00;;
8102;SDS011;4094;49.948;11.574;2023-08-01T01:21:13;6.27;;;5.33;;
8102;SDS011;4094;49.948;11.574;2023-08-01T01:24:01;4.93;;;4.53;;
8102;SDS011;4094;49.948;11.574;2023-08-01T01:26:32;5.23;;;4.73;;
8102;SDS011;4094;49.948;11.574;2023-08-01T01:29:02;5.47;;;4.97;;
8102;SDS011;4094;49.948;11.574;2023-08-01T01:31:32;6.20;;;5.23;;
8102;SDS011;4094;49.948;11.574;2023-08-01T01:34:02;6.27;;;5.23;;
8102;SDS011;4094;49.948;11.574;2023-08-01T01:36:33;8.83;;;5.73;;
8102;SDS011;4094;49.948;11.574;2023-08-01T01:39:02;6.00;;;5.40;;
8102;SDS011;4094;49.948;11.574;2023-08-01T01:41:32;6.07;;;5.10;;
8102;SDS011;4094;49.948;11.574;2023-08-01T01:44:01;5.37;;;4.87;;
8102;SDS011;4094;49.948;11.574;2023-08-01T01:46:30;5.43;;;4.93;;
8102;SDS011;4094;49.948;11.574;2023-08-01T01:49:00;5.87;;;5.17;;
8102;SDS011;4094;49.948;11.574;2023-08-01T01:51:29;5.70;;;5.20;;
8102;SDS011;4094;49.948;11.574;2023-08-01T01:54:00;5.17;;;4.77;;
8102;SDS011;4094;49.948;11.574;2023-08-01T01:56:29;5.37;;;4.97;;
8102;SDS011;4094;49.948;11.574;2023-08-01T01:58:58;6.83;;;5.17;;
8102;SDS011;4094;49.948;11.574;2023-08-01T02:01:27;5.17;;;4.53;;
8102;SDS011;4094;49.948;11.574;2023-08-01T02:03:56;6.67;;;5.10;;
8102;SDS011;4094;49.948;11.574;2023-08-01T02:06:25;7.27;;;5.60;;
8102;SDS011;4094;49.948;11.574;2023-08-01T02:08:54;5.70;;;5.20;;
8102;SDS011;4094;49.948;11.574;2023-08-01T02:11:29;6.67;;;5.20;;
8102;SDS011;4094;49.948;11.574;2023-08-01T02:13:58;5.67;;;5.03;;
8102;SDS011;4094;49.948;11.574;2023-08-01T02:16:29;5.50;;;5.00;;
8102;SDS011;4094;49.948;11.574;2023-08-01T02:18:58;5.13;;;4.73;;
8102;SDS011;4094;49.948;11.574;2023-08-01T02:21:27;6.03;;;5.30;;
8102;SDS011;4094;49.948;11.574;2023-08-01T02:23:56;5.60;;;5.10;;
8102;SDS011;4094;49.948;11.574;2023-08-01T02:26:26;5.50;;;5.00;;
8102;SDS011;4094;49.948;11.574;2023-08-01T02:28:57;5.70;;;5.10;;
8102;SDS011;4094;49.948;11.574;2023-08-01T02:31:26;5.73;;;5.23;;
8102;SDS011;4094;49.948;11.574;2023-08-01T02:33:56;6.00;;;5.40;;
8102;SDS011;4094;49.948;11.574;2023-08-01T02:36:25;5.60;;;5.10;;
8102;SDS011;4094;49.948;11.574;2023-08-01T02:38:54;6.10;;;5.50;;
8102;SDS011;4094;49.948;11.574;2023-08-01T02:41:23;5.90;;;5.27;;
8102;SDS011;4094;49.948;11.574;2023-08-01T02:43:52;5.73;;;5.23;;
8102;SDS011;4094;49.948;11.574;2023-08-01T02:46:22;5.83;;;5.30;;
8102;SDS011;4094;49.948;11.574;2023-08-01T02:48:51;5.83;;;5.33;;
8102;SDS011;4094;49.948;11.574;2023-08-01T02:51:20;9.77;;;5.33;;
8102;SDS011;4094;49.948;11.574;2023-08-01T02:53:50;5.50;;;5.00;;
8102;SDS011;4094;49.948;11.574;2023-08-01T02:56:19;5.90;;;5.40;;
8102;SDS011;4094;49.948;11.574;2023-08-01T02:58:48;6.50;;;5.80;;
8102;SDS011;4094;49.948;11.574;2023-08-01T03:01:19;5.43;;;4.93;;
8102;SDS011;4094;49.948;11.574;2023-08-01T03:03:49;5.93;;;5.43;;
8102;SDS011;4094;49.948;11.574;2023-08-01T03:06:18;6.27;;;5.43;;
8102;SDS011;4094;49.948;11.574;2023-08-01T03:08:47;6.23;;;5.60;;
8102;SDS011;4094;49.948;11.574;2023-08-01T03:11:17;6.80;;;5.50;;
8102;SDS011;4094;49.948;11.574;2023-08-01T03:13:46;6.30;;;5.70;;
8102;SDS011;4094;49.948;11.574;2023-08-01T03:16:15;5.97;;;5.50;;
8102;SDS011;4094;49.948;11.574;2023-08-01T03:18:45;6.70;;;5.80;;
8102;SDS011;4094;49.948;11.574;2023-08-01T03:21:15;6.57;;;5.97;;
8102;SDS011;4094;49.948;11.574;2023-08-01T03:23:45;6.10;;;5.50;;
8102;SDS011;4094;49.948;11.574;2023-08-01T03:26:14;5.40;;;5.00;;
8102;SDS011;4094;49.948;11.574;2023-08-01T03:28:45;5.90;;;5.30;;
8102;SDS011;4094;49.948;11.574;2023-08-01T03:31:14;5.77;;;5.27;;
8102;SDS011;4094;49.948;11.574;2023-08-01T03:33:43;5.60;;;5.10;;
8102;SDS011;4094;49.948;11.574;2023-08-01T03:36:13;5.93;;;5.50;;
8102;SDS011;4094;49.948;11.574;2023-08-01T03:38:43;6.00;;;5.50;;
8102;SDS011;4094;49.948;11.574;2023-08-01T03:41:12;5.90;;;5.40;;
8102;SDS011;4094;49.948;11.574;2023-08-01T03:43:42;6.33;;;5.63;;
8102;SDS011;4094;49.948;11.574;2023-08-01T03:46:11;5.83;;;5.33;;
8102;SDS011;4094;49.948;11.574;2023-08-01T03:48:41;5.70;;;5.20;;
8102;SDS011;4094;49.948;11.574;2023-08-01T03:51:10;5.77;;;5.20;;
8102;SDS011;4094;49.948;11.574;2023-08-01T03:53:43;6.33;;;5.73;;
8102;SDS011;4094;49.948;11.574;2023-08-01T03:56:20;6.10;;;5.57;;
8102;SDS011;4094;49.948;11.574;2023-08-01T03:58:49;5.93;;;5.53;;
8102;SDS011;4094;49.948;11.574;2023-08-01T04:01:18;6.03;;;5.53;;
8102;SDS011;4094;49.948;11.574;2023-08-01T04:03:48;6.13;;;5.37;;
8102;SDS011;4094;49.948;11.574;2023-08-01T04:06:17;5.80;;;5.30;;
8102;SDS011;4094;49.948;11.574;2023-08-01T04:08:47;6.10;;;5.60;;
8102;SDS011;4094;49.948;11.574;2023-08-01T04:11:17;5.70;;;5.30;;
8102;SDS011;4094;49.948;11.574;2023-08-01T04:13:46;6.20;;;5.70;;
8102;SDS011;4094;49.948;11.574;2023-08-01T04:16:15;6.20;;;5.70;;
8102;SDS011;4094;49.948;11.574;2023-08-01T04:18:44;6.07;;;5.57;;
8102;SDS011;4094;49.948;11.574;2023-08-01T04:21:13;6.27;;;5.77;;
8102;SDS011;4094;49.948;11.574;2023-08-01T04:23:43;5.63;;;5.17;;
8102;SDS011;4094;49.948;11.574;2023-08-01T04:26:14;6.17;;;5.67;;
8102;SDS011;4094;49.948;11.574;2023-08-01T04:28:43;6.10;;;5.60;;
8102;SDS011;4094;49.948;11.574;2023-08-01T04:31:14;5.60;;;5.20;;
8102;SDS011;4094;49.948;11.574;2023-08-01T04:33:43;6.07;;;5.57;;
8102;SDS011;4094;49.948;11.574;2023-08-01T04:36:13;5.90;;;5.40;;
8102;SDS011;4094;49.948;11.574;2023-08-01T04:38:42;6.90;;;5.87;;
8102;SDS011;4094;49.948;11.574;2023-08-01T04:41:11;5.87;;;5.37;;
8102;SDS011;4094;49.948;11.574;2023-08-01T04:43:41;5.50;;;5.10;;
8102;SDS011;4094;49.948;11.574;2023-08-01T04:46:11;5.53;;;5.03;;
8102;SDS011;4094;49.948;11.574;2023-08-01T04:48:42;5.50;;;5.00;;
8102;SDS011;4094;49.948;11.574;2023-08-01T04:51:11;5.50;;;5.00;;
8102;SDS011;4094;49.948;11.574;2023-08-01T04:53:41;5.80;;;5.30;;
8102;SDS011;4094;49.948;11.574;2023-08-01T04:56:10;5.97;;;4.97;;
8102;SDS011;4094;49.948;11.574;2023-08-01T04:58:41;5.40;;;4.90;;
8102;SDS011;4094;49.948;11.574;2023-08-01T05:01:11;5.73;;;5.23;;
8102;SDS011;4094;49.948;11.574;2023-08-01T05:03:41;5.00;;;4.53;;
8102;SDS011;4094;49.948;11.574;2023-08-01T05:06:10;5.83;;;5.33;;
8102;SDS011;4094;49.948;11.574;2023-08-01T05:08:39;5.43;;;4.93;;
8102;SDS011;4094;49.948;11.574;2023-08-01T05:11:08;5.47;;;5.03;;
8102;SDS011;4094;49.948;11.574;2023-08-01T05:13:38;5.40;;;4.83;;
8102;SDS011;4094;49.948;11.574;2023-08-01T05:16:08;5.63;;;4.73;;
8102;SDS011;4094;49.948;11.574;2023-08-01T05:18:37;6.50;;;4.80;;
8102;SDS011;4094;49.948;11.574;2023-08-01T05:21:06;5.60;;;5.10;;
8102;SDS011;4094;49.948;11.574;2023-08-01T05:23:35;5.33;;;4.90;;
8102;SDS011;4094;49.948;11.574;2023-08-01T05:26:06;5.67;;;5.10;;
8102;SDS011;4094;49.948;11.574;2023-08-01T05:28:35;5.27;;;4.77;;
8102;SDS011;4094;49.948;11.574;2023-08-01T05:31:04;5.00;;;4.60;;
8102;SDS011;4094;49.948;11.574;2023-08-01T05:33:35;4.87;;;4.50;;
8102;SDS011;4094;49.948;11.574;2023-08-01T05:36:06;5.23;;;4.83;;
8102;SDS011;4094;49.948;11.574;2023-08-01T05:38:35;5.63;;;4.90;;
8102;SDS011;4094;49.948;11.574;2023-08-01T05:41:05;5.27;;;4.87;;
8102;SDS011;4094;49.948;11.574;2023-08-01T05:43:34;5.27;;;4.87;;
8102;SDS011;4094;49.948;11.574;2023-08-01T05:46:03;5.70;;;5.20;;
8102;SDS011;4094;49.948;11.574;2023-08-01T05:48:36;5.20;;;4.80;;
8102;SDS011;4094;49.948;11.574;2023-08-01T05:51:05;6.03;;;5.37;;
8102;SDS011;4094;49.948;11.574;2023-08-01T05:53:35;5.20;;;4.80;;
8102;SDS011;4094;49.948;11.574;2023-08-01T05:56:04;5.73;;;5.13;;
8102;SDS011;4094;49.948;11.574;2023-08-01T05:58:33;5.70;;;5.20;;
8102;SDS011;4094;49.948;11.574;2023-08-01T06:01:02;5.50;;;5.00;;
8102;SDS011;4094;49.948;11.574;2023-08-01T06:03:34;5.80;;;5.20;;
8102;SDS011;4094;49.948;11.574;2023-08-01T06:06:05;5.47;;;5.07;;
8102;SDS011;4094;49.948;11.574;2023-08-01T06:08:34;5.57;;;4.97;;
8102;SDS011;4094;49.948;11.574;2023-08-01T06:11:03;5.30;;;4.90;;
8102;SDS011;4094;49.948;11.574;2023-08-01T06:13:33;4.73;;;4.43;;
8102;SDS011;4094;49.948;11.574;2023-08-01T06:16:03;5.60;;;4.60;;
8102;SDS011;4094;49.948;11.574;2023-08-01T06:18:34;5.20;;;4.80;;
8102;SDS011;4094;49.948;11.574;2023-08-01T06:21:04;5.00;;;4.60;;
8102;SDS011;4094;49.948;11.574;2023-08-01T06:23:35;4.90;;;4.50;;
8102;SDS011;4094;49.948;11.574;2023-08-01T06:26:04;5.00;;;4.60;;
8102;SDS011;4094;49.948;11.574;2023-08-01T06:28:35;4.90;;;4.23;;
8102;SDS011;4094;49.948;11.574;2023-08-01T06:31:04;4.87;;;4.47;;
8102;SDS011;4094;49.948;11.574;2023-08-01T06:33:35;4.90;;;4.50;;
8102;SDS011;4094;49.948;11.574;2023-08-01T06:36:06;4.60;;;4.17;;
8102;SDS011;4094;49.948;11.574;2023-08-01T06:38:37;4.90;;;4.40;;
8102;SDS011;4094;49.948;11.574;2023-08-01T06:41:07;4.40;;;4.10;;
8102;SDS011;4094;49.948;11.574;2023-08-01T06:43:37;5.17;;;4.77;;
8102;SDS011;4094;49.948;11.574;2023-08-01T06:46:06;4.30;;;4.00;;
8102;SDS011;4094;49.948;11.574;2023-08-01T06:48:38;4.70;;;4.30;;
8102;SDS011;4094;49.948;11.574;2023-08-01T06:51:09;4.40;;;4.10;;
8102;SDS011;4094;49.948;11.574;2023-08-01T06:53:39;4.43;;;4.13;;
8102;SDS011;4094;49.948;11.574;2023-08-01T06:56:09;4.43;;;4.13;;
8102;SDS011;4094;49.948;11.574;2023-08-01T06:58:38;4.47;;;4.03;;
8102;SDS011;4094;49.948;11.574;2023-08-01T07:01:08;4.27;;;3.87;;
8102;SDS011;4094;49.948;11.574;2023-08-01T07:03:37;4.60;;;4.20;;
8102;SDS011;4094;49.948;11.574;2023-08-01T07:06:08;4.23;;;3.93;;
8102;SDS011;4094;49.948;11.574;2023-08-01T07:08:38;4.10;;;3.80;;
8102;SDS011;4094;49.948;11.574;2023-08-01T07:11:07;4.07;;;3.77;;
8102;SDS011;4094;49.948;11.574;2023-08-01T07:13:37;4.13;;;3.80;;
8102;SDS011;4094;49.948;11.574;2023-08-01T07:16:06;4.13;;;3.83;;
8102;SDS011;4094;49.948;11.574;2023-08-01T07:18:35;4.47;;;4.07;;
8102;SDS011;4094;49.948;11.574;2023-08-01T07:21:04;4.50;;;4.10;;
8102;SDS011;4094;49.948;11.574;2023-08-01T07:23:35;4.33;;;4.00;;
8102;SDS011;4094;49.948;11.574;2023-08-01T07:26:04;4.73;;;4.33;;
8102;SDS011;4094;49.948;11.574;2023-08-01T07:28:33;4.47;;;4.07;;
8102;SDS011;4094;49.948;11.574;2023-08-01T07:31:03;3.90;;;3.60;;
8102;SDS011;4094;49.948;11.574;2023-08-01T07:33:37;4.00;;;3.70;;
8102;SDS011;4094;49.948;11.574;2023-08-01T07:36:06;4.53;;;3.90;;
8102;SDS011;4094;49.948;11.574;2023-08-01T07:38:37;4.00;;;3.70;;
8102;SDS011;4094;49.948;11.574;2023-08-01T07:41:06;4.17;;;3.87;;
8102;SDS011;4094;49.948;11.574;2023-08-01T07:43:36;4.20;;;3.90;;
8102;SDS011;4094;49.948;11.574;2023-08-01T07:46:07;4.60;;;4.30;;
8102;SDS011;4094;49.948;11.574;2023-08-01T07:48:37;4.53;;;4.13;;
8102;SDS011;4094;49.948;11.574;2023-08-01T07:51:07;4.77;;;4.33;;
8102;SDS011;4094;49.948;11.574;2023-08-01T07:53:40;4.40;;;4.10;;
8102;SDS011;4094;49.948;11.574;2023-08-01T07:56:09;4.90;;;4.50;;
8102;SDS011;4094;49.948;11.574;2023-08-01T07:58:38;4.70;;;4.40;;
8102;SDS011;4094;49.948;11.574;2023-08-01T08:01:07;4.87;;;4.47;;
8102;SDS011;4094;49.948;11.574;2023-08-01T08:03:38;5.10;;;4.63;;
8102;SDS011;4094;49.948;11.574;2023-08-01T08:11:35;5.30;;;4.80;;
8102;SDS011;4094;49.948;11.574;2023-08-01T08:42:55;5.17;;;4.70;;
8102;SDS011;4094;49.948;11.574;2023-08-01T08:45:27;5.77;;;5.27;;
8102;SDS011;4094;49.948;11.574;2023-08-01T08:48:02;5.20;;;4.80;;
8102;SDS011;4094;49.948;11.574;2023-08-01T08:50:39;5.57;;;5.13;;
8102;SDS011;4094;49.948;11.574;2023-08-01T08:53:09;5.50;;;5.00;;
8102;SDS011;4094;49.948;11.574;2023-08-01T08:55:40;5.10;;;4.70;;
8102;SDS011;4094;49.948;11.574;2023-08-01T08:58:11;5.47;;;5.00;;
8102;SDS011;4094;49.948;11.574;2023-08-01T09:00:41;4.57;;;4.27;;
8102;SDS011;4094;49.948;11.574;2023-08-01T09:03:11;5.30;;;4.80;;
8102;SDS011;4094;49.948;11.574;2023-08-01T09:05:44;5.97;;;4.97;;
8102;SDS011;4094;49.948;11.574;2023-08-01T09:08:17;4.90;;;4.50;;
8102;SDS011;4094;49.948;11.574;2023-08-01T09:10:48;5.10;;;4.60;;
8102;SDS011;4094;49.948;11.574;2023-08-01T09:13:19;5.67;;;4.77;;
8102;SDS011;4094;49.948;11.574;2023-08-01T09:15:48;5.17;;;4.67;;
8102;SDS011;4094;49.948;11.574;2023-08-01T09:18:19;4.80;;;4.50;;
8102;SDS011;4094;49.948;11.574;2023-08-01T09:20:48;4.87;;;4.47;;
8102;SDS011;4094;49.948;11.574;2023-08-01T09:23:18;5.30;;;4.90;;
8102;SDS011;4094;49.948;11.574;2023-08-01T09:25:47;5.30;;;4.83;;
8102;SDS011;4094;49.948;11.574;2023-08-01T09:28:20;4.97;;;4.57;;
8102;SDS011;4094;49.948;11.574;2023-08-01T09:30:51;5.00;;;4.60;;
8102;SDS011;4094;49.948;11.574;2023-08-01T09:33:23;5.00;;;4.60;;
8102;SDS011;4094;49.948;11.574;2023-08-01T09:35:52;4.53;;;4.13;;
8102;SDS011;4094;49.948;11.574;2023-08-01T09:38:21;4.80;;;4.40;;
8102;SDS011;4094;49.948;11.574;2023-08-01T09:40:53;5.20;;;4.70;;
8102;SDS011;4094;49.948;11.574;2023-08-01T09:43:23;4.90;;;4.50;;
8102;SDS011;4094;49.948;11.574;2023-08-01T09:45:53;5.20;;;4.70;;
8102;SDS011;4094;49.948;11.574;2023-08-01T09:48:23;4.37;;;4.07;;
8102;SDS011;4094;49.948;11.574;2023-08-01T09:51:03;4.37;;;3.97;;
8102;SDS011;4094;49.948;11.574;2023-08-01T09:53:34;4.43;;;4.13;;
8102;SDS011;4094;49.948;11.574;2023-08-01T09:56:04;4.50;;;4.10;;
8102;SDS011;4094;49.948;11.574;2023-08-01T09:58:36;5.57;;;4.60;;
8102;SDS011;4094;49.948;11.574;2023-08-01T10:01:06;4.03;;;3.73;;
8102;SDS011;4094;49.948;11.574;2023-08-01T10:03:35;4.40;;;4.10;;
8102;SDS011;4094;49.948;11.574;2023-08-01T10:06:05;4.00;;;3.70;;
8102;SDS011;4094;49.948;11.574;2023-08-01T10:08:34;3.60;;;3.40;;
8102;SDS011;4094;49.948;11.574;2023-08-01T10:11:04;3.73;;;3.43;;
8102;SDS011;4094;49.948;11.574;2023-08-01T10:13:35;3.80;;;3.50;;
8102;SDS011;4094;49.948;11.574;2023-08-01T10:16:05;3.90;;;3.60;;
8102;SDS011;4094;49.948;11.574;2023-08-01T10:18:34;3.93;;;3.63;;
8102;SDS011;4094;49.948;11.574;2023-08-01T10:21:06;3.70;;;3.40;;
8102;SDS011;4094;49.948;11.574;2023-08-01T10:23:41;3.90;;;3.60;;
8102;SDS011;4094;49.948;11.574;2023-08-01T10:26:15;3.83;;;3.53;;
8102;SDS011;4094;49.948;11.574;2023-08-01T10:28:50;3.60;;;3.40;;
8102;SDS011;4094;49.948;11.574;2023-08-01T10:31:20;3.60;;;3.30;;
8102;SDS011;4094;49.948;11.574;2023-08-01T10:34:03;3.60;;;3.40;;
8102;SDS011;4094;49.948;11.574;2023-08-01T10:36:54;3.80;;;3.50;;
8102;SDS011;4094;49.948;11.574;2023-08-01T10:39:25;3.50;;;3.30;;
8102;SDS011;4094;49.948;11.574;2023-08-01T10:41:59;4.07;;;3.67;;
8102;SDS011;4094;49.948;11.574;2023-08-01T10:44:32;4.70;;;4.00;;
8102;SDS011;4094;49.948;11.574;2023-08-01T10:47:12;4.03;;;3.70;;
8102;SDS011;4094;49.948;11.574;2023-08-01T10:49:41;3.90;;;3.60;;
8102;SDS011;4094;49.948;11.574;2023-08-01T10:52:17;4.30;;;3.90;;
8102;SDS011;4094;49.948;11.574;2023-08-01T10:54:55;4.10;;;3.70;;
8102;SDS011;4094;49.948;11.574;2023-08-01T10:57:26;3.80;;;3.50;;
8102;SDS011;4094;49.948;11.574;2023-08-01T10:59:58;4.00;;;3.70;;
8102;SDS011;4094;49.948;11.574;2023-08-01T11:02:28;4.13;;;3.83;;
8102;SDS011;4094;49.948;11.574;2023-08-01T11:04:59;4.13;;;3.83;;
8102;SDS011;4094;49.948;11.574;2023-08-01T11:07:30;4.67;;;3.90;;
8102;SDS011;4094;49.948;11.574;2023-08-01T11:10:03;4.63;;;3.80;;
8102;SDS011;4094;49.948;11.574;2023-08-01T11:12:34;4.57;;;4.17;;
8102;SDS011;4094;49.948;11.574;2023-08-01T11:15:07;4.07;;;3.77;;
8102;SDS011;4094;49.948;11.574;2023-08-01T11:17:37;4.10;;;3.80;;
8102;SDS011;4094;49.948;11.574;2023-08-01T11:20:08;3.87;;;3.57;;
8102;SDS011;4094;49.948;11.574;2023-08-01T11:22:48;4.50;;;4.10;;
8102;SDS011;4094;49.948;11.574;2023-08-01T11:25:31;4.73;;;4.33;;
8102;SDS011;4094;49.948;11.574;2023-08-01T11:28:11;4.33;;;4.03;;
8102;SDS011;4094;49.948;11.574;2023-08-01T11:30:44;8.00;;;4.63;;
8102;SDS011;4094;49.948;11.574;2023-08-01T11:33:14;4.77;;;4.40;;
8102;SDS011;4094;49.948;11.574;2023-08-01T11:35:43;5.10;;;4.60;;
8102;SDS011;4094;49.948;11.574;2023-08-01T11:38:17;4.60;;;4.20;;
8102;SDS011;4094;49.948;11.574;2023-08-01T11:40:47;4.40;;;4.10;;
8102;SDS011;4094;49.948;11.574;2023-08-01T11:43:17;4.87;;;4.37;;
8102;SDS011;4094;49.948;11.574;2023-08-01T11:45:51;4.07;;;3.77;;
8102;SDS011;4094;49.948;11.574;2023-08-01T11:48:22;4.10;;;3.80;;
8102;SDS011;4094;49.948;11.574;2023-08-01T11:50:56;3.40;;;3.20;;
8102;SDS011;4094;49.948;11.574;2023-08-01T11:53:29;4.03;;;3.37;;
8102;SDS011;4094;49.948;11.574;2023-08-01T11:56:19;3.30;;;3.10;;
8102;SDS011;4094;49.948;11.574;2023-08-01T11:58:49;3.20;;;3.00;;
8102;SDS011;4094;49.948;11.574;2023-08-01T12:01:20;3.37;;;3.17;;
8102;SDS011;4094;49.948;11.574;2023-08-01T12:03:50;3.43;;;3.20;;
8102;SDS011;4094;49.948;11.574;2023-08-01T12:06:22;3.40;;;3.10;;
8102;SDS011;4094;49.948;11.574;2023-08-01T12:08:52;3.40;;;3.10;;
8102;SDS011;4094;49.948;11.574;2023-08-01T12:11:22;3.27;;;2.97;;
8102;SDS011;4094;49.948;11.574;2023-08-01T12:14:00;3.13;;;2.87;;
8102;SDS011;4094;49.948;11.574;2023-08-01T12:16:31;3.20;;;3.00;;
8102;SDS011;4094;49.948;11.574;2023-08-01T12:19:00;2.80;;;2.70;;
8102;SDS011;4094;49.948;11.574;2023-08-01T12:21:30;3.20;;;3.00;;
8102;SDS011;4094;49.948;11.574;2023-08-01T12:24:00;3.13;;;2.93;;
8102;SDS011;4094;49.948;11.574;2023-08-01T12:26:30;2.90;;;2.70;;
8102;SDS011;4094;49.948;11.574;2023-08-01T12:28:59;4.03;;;3.10;;
8102;SDS011;4094;49.948;11.574;2023-08-01T12:31:29;3.20;;;2.90;;
8102;SDS011;4094;49.948;11.574;2023-08-01T12:34:00;3.20;;;3.00;;
8102;SDS011;4094;49.948;11.574;2023-08-01T12:36:29;3.20;;;3.00;;
8102;SDS011;4094;49.948;11.574;2023-08-01T12:38:58;3.17;;;2.97;;
8102;SDS011;4094;49.948;11.574;2023-08-01T12:41:28;3.40;;;3.03;;
8102;SDS011;4094;49.948;11.574;2023-08-01T12:43:57;2.97;;;2.77;;
8102;SDS011;4094;49.948;11.574;2023-08-01T12:46:26;3.10;;;2.90;;
8102;SDS011;4094;49.948;11.574;2023-08-01T12:48:56;2.83;;;2.63;;
8102;SDS011;4094;49.948;11.574;2023-08-01T12:51:28;3.00;;;2.70;;
8102;SDS011;4094;49.948;11.574;2023-08-01T12:53:57;3.47;;;2.80;;
8102;SDS011;4094;49.948;11.574;2023-08-01T12:56:27;3.80;;;2.80;;
8102;SDS011;4094;49.948;11.574;2023-08-01T12:58:56;3.40;;;3.00;;
8102;SDS011;4094;49.948;11.574;2023-08-01T13:01:36;3.03;;;2.83;;
8102;SDS011;4094;49.948;11.574;2023-08-01T13:04:11;2.57;;;2.37;;
8102;SDS011;4094;49.948;11.574;2023-08-01T13:06:43;2.57;;;2.47;;
8102;SDS011;4094;49.948;11.574;2023-08-01T13:09:13;2.50;;;2.40;;
8102;SDS011;4094;49.948;11.574;2023-08-01T13:11:52;3.93;;;2.70;;
8102;SDS011;4094;49.948;11.574;2023-08-01T13:14:22;3.07;;;2.60;;
8102;SDS011;4094;49.948;11.574;2023-08-01T13:16:53;2.80;;;2.60;;
8102;SDS011;4094;49.948;11.574;2023-08-01T13:23:03;2.60;;;2.40;;
8102;SDS011;4094;49.948;11.574;2023-08-01T13:25:32;3.23;;;2.60;;
8102;SDS011;4094;49.948;11.574;2023-08-01T13:28:01;3.53;;;2.47;;
8102;SDS011;4094;49.948;11.574;2023-08-01T13:30:31;2.70;;;2.50;;
8102;SDS011;4094;49.948;11.574;2023-08-01T13:33:00;3.90;;;2.50;;
8102;SDS011;4094;49.948;11.574;2023-08-01T13:35:29;2.83;;;2.63;;
8102;SDS011;4094;49.948;11.574;2023-08-01T13:37:59;2.77;;;2.57;;
8102;SDS011;4094;49.948;11.574;2023-08-01T13:40:30;3.33;;;2.47;;
8102;SDS011;4094;49.948;11.574;2023-08-01T13:42:59;2.70;;;2.50;;
8102;SDS011;4094;49.948;11.574;2023-08-01T13:45:29;3.07;;;2.77;;
8102;SDS011;4094;49.948;11.574;2023-08-01T13:48:00;2.53;;;2.33;;
8102;SDS011;4094;49.948;11.574;2023-08-01T13:51:08;2.57;;;2.37;;
8102;SDS011;4094;49.948;11.574;2023-08-01T13:53:37;2.70;;;2.50;;
8102;SDS011;4094;49.948;11.574;2023-08-01T13:56:09;2.60;;;2.40;;
8102;SDS011;4094;49.948;11.574;2023-08-01T13:58:39;2.57;;;2.37;;
8102;SDS011;4094;49.948;11.574;2023-08-01T14:01:11;2.40;;;2.20;;
8102;SDS011;4094;49.948;11.574;2023-08-01T14:03:40;2.23;;;2.03;;
8102;SDS011;4094;49.948;11.574;2023-08-01T14:06:12;2.40;;;2.20;;
8102;SDS011;4094;49.948;11.574;2023-08-01T14:08:42;2.10;;;2.00;;
8102;SDS011;4094;49.948;11.574;2023-08-01T14:11:13;2.10;;;2.00;;
8102;SDS011;4094;49.948;11.574;2023-08-01T14:13:43;3.37;;;2.47;;
8102;SDS011;4094;49.948;11.574;2023-08-01T14:16:20;2.10;;;2.00;;
8102;SDS011;4094;49.948;11.574;2023-08-01T14:18:50;2.40;;;2.20;;
8102;SDS011;4094;49.948;11.574;2023-08-01T14:21:19;2.30;;;2.10;;
8102;SDS011;4094;49.948;11.574;2023-08-01T14:23:48;3.90;;;2.20;;
8102;SDS011;4094;49.948;11.574;2023-08-01T14:26:19;3.60;;;2.10;;
8102;SDS011;4094;49.948;11.574;2023-08-01T14:28:49;2.13;;;2.03;;
8102;SDS011;4094;49.948;11.574;2023-08-01T14:31:19;2.93;;;2.00;;
8102;SDS011;4094;49.948;11.574;2023-08-01T14:33:50;2.37;;;2.20;;
8102;SDS011;4094;49.948;11.574;2023-08-01T14:36:19;2.30;;;2.10;;
8102;SDS011;4094;49.948;11.574;2023-08-01T14:38:49;2.70;;;2.27;;
8102;SDS011;4094;49.948;11.574;2023-08-01T14:41:26;4.07;;;2.13;;
8102;SDS011;4094;49.948;11.574;2023-08-01T14:44:25;2.10;;;2.00;;
8102;SDS011;4094;49.948;11.574;2023-08-01T14:46:55;2.40;;;2.20;;
8102;SDS011;4094;49.948;11.574;2023-08-01T14:49:24;2.13;;;2.00;;
8102;SDS011;4094;49.948;11.574;2023-08-01T14:51:55;2.30;;;2.17;;
8102;SDS011;4094;49.948;11.574;2023-08-01T14:54:24;7.30;;;3.20;;
8102;SDS011;4094;49.948;11.574;2023-08-01T14:57:09;4.60;;;2.73;;
8102;SDS011;4094;49.948;11.574;2023-08-01T14:59:40;3.67;;;2.40;;
8102;SDS011;4094;49.948;11.574;2023-08-01T15:02:10;3.57;;;2.73;;
8102;SDS011;4094;49.948;11.574;2023-08-01T15:04:42;2.83;;;2.63;;
8102;SDS011;4094;49.948;11.574;2023-08-01T15:07:11;2.97;;;2.70;;
8102;SDS011;4094;49.948;11.574;2023-08-01T15:09:41;3.07;;;2.60;;
8102;SDS011;4094;49.948;11.574;2023-08-01T15:12:12;2.60;;;2.40;;
8102;SDS011;4094;49.948;11.574;2023-08-01T15:14:41;2.97;;;2.40;;
8102;SDS011;4094;49.948;11.574;2023-08-01T15:17:11;2.53;;;2.33;;
8102;SDS011;4094;49.948;11.574;2023-08-01T15:19:40;2.70;;;2.50;;
8102;SDS011;4094;49.948;11.574;2023-08-01T15:22:11;2.90;;;2.60;;
8102;SDS011;4094;49.948;11.574;2023-08-01T15:24:40;2.40;;;2.30;;
8102;SDS011;4094;49.948;11.574;2023-08-01T15:27:09;2.83;;;2.63;;
8102;SDS011;4094;49.948;11.574;2023-08-01T15:29:40;2.63;;;2.40;;
8102;SDS011;4094;49.948;11.574;2023-08-01T15:32:09;2.93;;;2.70;;
8102;SDS011;4094;49.948;11.574;2023-08-01T15:34:39;3.40;;;2.40;;
8102;SDS011;4094;49.948;11.574;2023-08-01T15:37:08;2.40;;;2.30;;
8102;SDS011;4094;49.948;11.574;2023-08-01T15:39:37;3.37;;;2.77;;
8102;SDS011;4094;49.948;11.574;2023-08-01T15:42:07;2.80;;;2.60;;
8102;SDS011;4094;49.948;11.574;2023-08-01T15:44:36;2.80;;;2.60;;
8102;SDS011;4094;49.948;11.574;2023-08-01T15:47:07;3.33;;;2.80;;
8102;SDS011;4094;49.948;11.574;2023-08-01T15:49:38;2.60;;;2.40;;
8102;SDS011;4094;49.948;11.574;2023-08-01T15:52:10;3.10;;;2.63;;
8102;SDS011;4094;49.948;11.574;2023-08-01T15:54:39;2.90;;;2.70;;
8102;SDS011;4094;49.948;11.574;2023-08-01T15:57:08;2.70;;;2.43;;
8102;SDS011;4094;49.948;11.574;2023-08-01T15:59:37;2.67;;;2.37;;